Time;durP1;ratioP1;P1;durP2;ratioP2;P2;SDS_P1;SDS_P2;PMS_P1;PMS_P2;Temp;Humidity;BMP_temperature;BMP_pressure;BME280_temperature;BME280_humidity;BME280_pressure;Samples;Min_cycle;Max_cycle;Signal;HPM_P1;HPM_P2
2022/01/05 00:00:40;;;;;;;6.03;1.10;;;1.70;99.90;;;;;;5000562;28;20096;-78
2022/01/05 00:03:05;;;;;;;6.57;1.50;;;1.70;99.90;;;;;;5000990;28;20041;-78
2022/01/05 00:05:31;;;;;;;7.68;1.45;;;1.60;99.90;;;;;;5004175;28;20120;-78
2022/01/05 00:07:57;;;;;;;11.90;1.77;;;1.60;99.90;;;;;;4999217;28;20042;-79
2022/01/05 00:10:23;;;;;;;9.98;1.38;;;1.70;99.90;;;;;;5009900;28;20136;-78
2022/01/05 00:12:49;;;;;;;8.40;1.45;;;1.70;99.90;;;;;;5001099;28;20099;-78
2022/01/05 00:15:14;;;;;;;7.55;1.60;;;1.80;99.90;;;;;;5006935;28;20166;-78
2022/01/05 00:17:40;;;;;;;10.05;1.45;;;1.70;99.90;;;;;;4994277;28;20042;-78
2022/01/05 00:20:06;;;;;;;7.18;1.40;;;1.80;99.90;;;;;;4994263;28;20041;-78
2022/01/05 00:22:32;;;;;;;8.88;1.48;;;1.80;99.90;;;;;;5004709;28;20037;-78
2022/01/05 00:24:58;;;;;;;7.97;1.85;;;1.80;99.90;;;;;;4998772;28;20391;-78
2022/01/05 00:27:23;;;;;;;6.40;1.20;;;1.80;99.90;;;;;;5007934;28;20044;-78
2022/01/05 00:29:49;;;;;;;7.10;1.58;;;1.70;99.90;;;;;;5000828;28;20349;-78
2022/01/05 00:32:14;;;;;;;8.52;2.08;;;1.70;99.90;;;;;;5004004;28;20034;-78
2022/01/05 00:34:40;;;;;;;9.20;1.70;;;1.70;99.90;;;;;;5003484;28;20041;-78
2022/01/05 00:37:05;;;;;;;7.72;1.88;;;1.80;99.90;;;;;;5007895;28;20061;-78
2022/01/05 00:39:31;;;;;;;7.80;1.75;;;1.90;99.90;;;;;;4995928;28;20045;-78
2022/01/05 00:41:57;;;;;;;9.60;1.52;;;1.90;99.90;;;;;;5004671;28;20048;-78
2022/01/05 00:44:24;;;;;;;9.20;1.50;;;2.00;99.90;;;;;;4995210;28;20040;-78
2022/01/05 00:46:49;;;;;;;10.52;1.65;;;2.10;99.90;;;;;;5006312;28;20065;-78
2022/01/05 00:49:15;;;;;;;13.43;2.05;;;2.10;99.90;;;;;;4997900;28;20516;-78
2022/01/05 00:51:41;;;;;;;12.05;1.92;;;2.20;99.90;;;;;;5005621;28;20129;-78
2022/01/05 00:54:06;;;;;;;7.20;1.85;;;2.20;99.90;;;;;;5004386;28;20111;-78
2022/01/05 00:56:32;;;;;;;11.57;1.98;;;2.40;99.90;;;;;;5009694;28;20403;-78
2022/01/05 00:58:58;;;;;;;11.40;1.60;;;2.50;99.90;;;;;;5009543;28;20046;-78
2022/01/05 01:01:24;;;;;;;10.45;2.10;;;2.50;99.90;;;;;;5013028;28;20115;-78
2022/01/05 01:03:50;;;;;;;10.85;1.58;;;2.60;99.90;;;;;;5023696;28;20435;-78
2022/01/05 01:06:15;;;;;;;11.05;1.60;;;2.70;99.90;;;;;;5008588;28;20041;-79
2022/01/05 01:08:41;;;;;;;10.88;1.38;;;2.70;99.90;;;;;;5031179;28;20037;-78
2022/01/05 01:11:07;;;;;;;11.45;1.83;;;2.80;99.90;;;;;;5000065;28;20052;-78
2022/01/05 01:13:33;;;;;;;10.85;2.13;;;2.80;99.90;;;;;;5012205;28;20415;-78
2022/01/05 01:15:59;;;;;;;11.73;2.03;;;3.00;99.90;;;;;;5007863;28;20038;-78
2022/01/05 01:18:25;;;;;;;8.95;1.75;;;3.00;99.90;;;;;;5004820;28;20076;-78
2022/01/05 01:20:50;;;;;;;8.90;2.30;;;2.90;99.90;;;;;;5009614;28;20498;-79
2022/01/05 01:23:24;;;;;;;13.73;1.95;;;2.90;99.90;;;;;;5004891;28;20064;-79
2022/01/05 01:25:50;;;;;;;9.73;1.70;;;2.90;99.90;;;;;;4996806;28;20057;-79
2022/01/05 01:28:16;;;;;;;10.30;1.98;;;2.90;99.90;;;;;;5003587;28;20042;-78
2022/01/05 01:30:42;;;;;;;11.13;1.45;;;2.80;99.90;;;;;;4986105;28;20045;-79
2022/01/05 01:33:07;;;;;;;9.98;1.70;;;2.80;99.90;;;;;;5010947;28;20832;-78
2022/01/05 01:35:33;;;;;;;11.93;2.47;;;2.80;99.90;;;;;;4981021;28;20041;-78
2022/01/05 01:37:59;;;;;;;9.18;1.77;;;2.70;99.90;;;;;;5012524;28;20076;-78
2022/01/05 01:40:25;;;;;;;8.75;1.40;;;2.70;99.90;;;;;;4996871;28;20129;-79
2022/01/05 01:42:50;;;;;;;9.48;1.85;;;2.70;99.90;;;;;;5024562;28;20116;-78
2022/01/05 01:45:16;;;;;;;12.10;2.00;;;2.70;99.90;;;;;;5014360;28;20037;-79
2022/01/05 01:47:42;;;;;;;13.40;1.90;;;2.60;99.90;;;;;;5000170;28;20046;-78
2022/01/05 01:50:09;;;;;;;5.03;1.17;;;2.60;99.90;;;;;;5014149;28;20045;-78
2022/01/05 01:52:35;;;;;;;6.68;1.40;;;2.60;99.90;;;;;;5012809;28;20063;-78
2022/01/05 01:55:01;;;;;;;13.02;1.92;;;2.60;99.90;;;;;;5006052;28;20042;-79
2022/01/05 01:57:28;;;;;;;9.48;1.60;;;2.70;99.90;;;;;;4996491;28;20124;-78
2022/01/05 01:59:57;;;;;;;10.68;1.75;;;2.60;99.90;;;;;;4996634;28;20057;-78
2022/01/05 02:02:24;;;;;;;11.07;1.80;;;2.50;99.90;;;;;;5005906;28;20038;-78
2022/01/05 02:04:49;;;;;;;10.93;2.40;;;2.40;99.90;;;;;;5012986;23;20194;-78
2022/01/05 02:07:15;;;;;;;7.47;1.70;;;2.40;99.90;;;;;;5034581;28;20131;-78
2022/01/05 02:09:41;;;;;;;12.70;2.40;;;2.30;99.90;;;;;;5020514;28;20040;-79
2022/01/05 02:12:07;;;;;;;7.53;2.00;;;2.30;99.90;;;;;;5047008;28;20478;-78
2022/01/05 02:14:33;;;;;;;10.20;2.45;;;2.20;99.90;;;;;;5039061;28;20504;-78
2022/01/05 02:17:03;;;;;;;9.18;1.80;;;2.20;99.90;;;;;;5055662;28;20059;-78
2022/01/05 02:19:29;;;;;;;9.02;1.73;;;2.20;99.90;;;;;;5048249;28;20409;-78
2022/01/05 02:21:54;;;;;;;11.10;1.80;;;2.20;99.90;;;;;;5034259;28;20137;-78
2022/01/05 02:24:20;;;;;;;14.10;1.80;;;2.20;99.90;;;;;;5029400;28;20044;-78
2022/01/05 02:26:46;;;;;;;9.55;2.10;;;2.20;99.90;;;;;;5036099;28;20463;-78
2022/01/05 02:29:11;;;;;;;8.48;1.60;;;2.30;99.90;;;;;;5038425;28;20047;-78
2022/01/05 02:31:37;;;;;;;9.27;2.05;;;2.20;99.90;;;;;;5023237;28;20094;-78
2022/01/05 02:34:03;;;;;;;9.48;1.60;;;2.20;99.90;;;;;;5042778;28;20039;-78
2022/01/05 02:36:29;;;;;;;9.43;1.92;;;2.20;99.90;;;;;;5025667;28;20115;-78
2022/01/05 02:38:56;;;;;;;10.27;2.22;;;2.20;99.90;;;;;;5032956;28;20116;-78
2022/01/05 02:41:21;;;;;;;10.25;2.05;;;2.20;99.90;;;;;;5021654;28;20049;-78
2022/01/05 02:43:47;;;;;;;9.82;1.73;;;2.30;99.90;;;;;;5022075;28;20032;-78
2022/01/05 02:46:17;;;;;;;8.18;1.70;;;2.30;99.90;;;;;;5035083;28;20270;-79
2022/01/05 02:48:43;;;;;;;8.15;1.63;;;2.30;99.90;;;;;;5029724;28;20124;-78
2022/01/05 02:51:10;;;;;;;8.65;1.65;;;2.40;99.90;;;;;;5034172;28;20044;-78
2022/01/05 02:53:36;;;;;;;9.70;1.85;;;2.40;99.90;;;;;;5024017;28;20512;-78
2022/01/05 02:56:01;;;;;;;15.10;2.65;;;2.40;99.90;;;;;;5042862;28;20045;-78
2022/01/05 02:58:27;;;;;;;12.15;2.00;;;2.40;99.90;;;;;;5038637;28;20041;-78
2022/01/05 03:00:53;;;;;;;13.43;2.05;;;2.40;99.90;;;;;;5035186;28;20734;-78
2022/01/05 03:03:18;;;;;;;10.98;1.83;;;2.50;99.90;;;;;;5017941;28;20087;-78
2022/01/05 03:05:44;;;;;;;10.00;1.83;;;2.50;99.90;;;;;;5037868;28;20174;-78
2022/01/05 03:08:09;;;;;;;19.50;2.92;;;2.50;99.90;;;;;;5037212;28;20043;-78
2022/01/05 03:10:36;;;;;;;15.18;2.42;;;2.60;99.90;;;;;;5018086;28;20506;-78
2022/01/05 03:13:01;;;;;;;12.52;1.95;;;2.60;99.90;;;;;;5031506;28;20077;-78
2022/01/05 03:15:28;;;;;;;19.52;2.25;;;2.60;99.90;;;;;;5040944;28;20513;-78
2022/01/05 03:17:54;;;;;;;14.48;2.50;;;2.60;99.90;;;;;;5018509;28;20513;-78
2022/01/05 03:20:20;;;;;;;13.25;2.55;;;2.60;99.90;;;;;;5043205;28;20041;-78
2022/01/05 03:22:46;;;;;;;10.82;2.13;;;2.70;99.90;;;;;;5037793;28;20548;-78
2022/01/05 03:25:16;;;;;;;12.02;1.83;;;2.90;99.90;;;;;;5035392;28;20386;-78
2022/01/05 03:27:46;;;;;;;9.45;1.92;;;2.90;99.90;;;;;;5018151;28;20052;-78
2022/01/05 03:30:14;;;;;;;11.32;2.22;;;3.00;99.90;;;;;;5024897;28;20037;-78
2022/01/05 03:33:02;;;;;;;13.35;2.58;;;3.10;99.90;;;;;;5033320;28;20029;-78
2022/01/05 03:35:30;;;;;;;12.25;2.40;;;3.10;99.90;;;;;;5034873;28;20045;-77
2022/01/05 03:37:57;;;;;;;13.65;1.77;;;3.10;99.90;;;;;;5021837;28;20044;-78
2022/01/05 03:40:23;;;;;;;11.85;1.85;;;3.20;99.90;;;;;;5023674;28;20056;-78
2022/01/05 03:42:48;;;;;;;14.52;2.08;;;3.30;99.90;;;;;;5033624;28;20029;-78
2022/01/05 03:45:14;;;;;;;11.85;2.28;;;3.40;99.90;;;;;;5034734;28;20041;-78
2022/01/05 03:47:40;;;;;;;11.50;2.75;;;3.40;99.90;;;;;;5025725;28;20041;-78
2022/01/05 03:50:06;;;;;;;13.45;2.15;;;3.40;99.90;;;;;;5033578;28;20045;-78
2022/01/05 03:52:31;;;;;;;12.85;2.28;;;3.50;99.90;;;;;;5033382;28;20045;-77
2022/01/05 03:54:57;;;;;;;14.95;3.05;;;3.50;99.90;;;;;;5033277;28;20076;-78
2022/01/05 03:57:24;;;;;;;11.45;2.13;;;3.40;99.90;;;;;;5019379;28;20041;-78
2022/01/05 03:59:51;;;;;;;14.95;2.92;;;3.50;99.90;;;;;;5032491;28;20108;-78
2022/01/05 04:02:16;;;;;;;14.63;2.22;;;3.50;99.90;;;;;;5033159;28;20583;-77
2022/01/05 04:04:42;;;;;;;13.98;2.38;;;3.50;99.90;;;;;;5036871;28;20049;-78
2022/01/05 04:07:08;;;;;;;11.57;2.17;;;3.50;99.90;;;;;;5033507;28;20119;-78
2022/01/05 04:09:34;;;;;;;10.75;2.15;;;3.50;99.90;;;;;;5032046;28;20055;-78
2022/01/05 04:11:59;;;;;;;17.17;2.45;;;3.50;99.90;;;;;;5033037;28;20037;-78
2022/01/05 04:14:25;;;;;;;10.27;1.77;;;3.50;99.90;;;;;;5030655;28;20045;-77
2022/01/05 04:16:51;;;;;;;11.55;1.90;;;3.50;99.90;;;;;;5040653;28;20371;-78
2022/01/05 04:19:16;;;;;;;15.27;2.45;;;3.50;99.90;;;;;;5022250;28;20458;-78
2022/01/05 04:21:42;;;;;;;12.23;1.85;;;3.60;99.90;;;;;;5016080;28;20039;-79
2022/01/05 04:24:07;;;;;;;13.38;2.53;;;3.70;99.90;;;;;;5033739;28;20036;-77
2022/01/05 04:26:33;;;;;;;14.80;2.30;;;3.90;99.90;;;;;;5027899;28;20044;-78
2022/01/05 04:28:58;;;;;;;12.23;2.95;;;3.90;99.90;;;;;;5039041;28;20067;-78
2022/01/05 04:31:24;;;;;;;13.93;1.98;;;4.00;99.90;;;;;;5012842;28;20045;-78
2022/01/05 04:33:49;;;;;;;7.82;2.00;;;3.90;99.90;;;;;;5034726;28;20083;-78
2022/01/05 04:36:15;;;;;;;10.25;2.05;;;4.00;99.90;;;;;;5035312;28;20048;-78
2022/01/05 04:38:40;;;;;;;10.50;2.08;;;4.10;99.90;;;;;;5036694;28;20037;-78
2022/01/05 04:41:06;;;;;;;11.15;2.03;;;4.00;99.90;;;;;;5036508;28;20387;-78
2022/01/05 04:43:31;;;;;;;12.70;1.60;;;4.10;99.90;;;;;;5036003;28;20040;-78
2022/01/05 04:45:57;;;;;;;7.78;1.02;;;4.10;99.90;;;;;;5033280;28;20433;-77
2022/01/05 04:48:22;;;;;;;12.57;1.83;;;4.10;99.90;;;;;;5034578;28;20036;-78
2022/01/05 04:50:48;;;;;;;12.82;2.20;;;4.00;99.90;;;;;;5034957;28;20033;-78
2022/01/05 04:53:14;;;;;;;10.77;1.95;;;4.00;99.90;;;;;;5037106;28;20045;-78
2022/01/05 04:55:40;;;;;;;7.43;1.73;;;3.90;99.90;;;;;;5036298;28;20485;-77
2022/01/05 04:58:06;;;;;;;10.50;1.75;;;4.00;99.90;;;;;;5036383;28;20098;-78
2022/01/05 05:00:31;;;;;;;8.30;1.33;;;4.00;99.90;;;;;;5019918;28;20490;-79
2022/01/05 05:02:57;;;;;;;9.13;1.80;;;3.90;99.90;;;;;;5036390;28;20029;-77
2022/01/05 05:05:23;;;;;;;13.10;2.13;;;4.00;99.90;;;;;;5036144;28;20102;-78
2022/01/05 05:07:48;;;;;;;7.22;1.52;;;4.00;99.90;;;;;;5040321;28;20101;-79
2022/01/05 05:10:14;;;;;;;11.63;2.08;;;4.10;99.90;;;;;;5036088;28;20048;-79
2022/01/05 05:12:39;;;;;;;13.05;1.80;;;4.00;99.90;;;;;;5020554;28;20056;-78
2022/01/05 05:15:05;;;;;;;12.65;2.42;;;4.00;99.90;;;;;;5035730;28;20045;-77
2022/01/05 05:17:31;;;;;;;4.28;1.05;;;4.10;99.90;;;;;;5052231;28;20052;-77
2022/01/05 05:19:56;;;;;;;10.70;1.75;;;4.20;99.90;;;;;;5036578;28;20029;-78
2022/01/05 05:22:23;;;;;;;9.60;1.80;;;4.20;99.90;;;;;;5037604;28;20065;-78
2022/01/05 05:24:49;;;;;;;6.00;1.23;;;4.10;99.90;;;;;;5020422;28;20033;-78
2022/01/05 05:27:14;;;;;;;11.32;1.70;;;4.20;99.90;;;;;;5044288;28;20033;-78
2022/01/05 05:29:40;;;;;;;10.55;1.92;;;4.20;99.90;;;;;;5037724;28;20132;-78
2022/01/05 05:32:06;;;;;;;11.45;2.17;;;4.20;99.90;;;;;;5019684;28;20041;-78
2022/01/05 05:34:32;;;;;;;11.35;1.95;;;4.20;99.90;;;;;;5038816;28;20048;-79
2022/01/05 05:36:57;;;;;;;9.88;2.20;;;4.20;99.90;;;;;;5017128;28;20045;-78
2022/01/05 05:39:23;;;;;;;12.10;1.67;;;4.20;99.90;;;;;;5034163;28;20643;-78
2022/01/05 05:41:48;;;;;;;17.02;2.53;;;4.30;99.90;;;;;;5019003;28;20072;-78
2022/01/05 05:44:14;;;;;;;13.75;2.53;;;4.30;99.90;;;;;;5038313;28;20606;-77
2022/01/05 05:46:40;;;;;;;17.83;3.30;;;4.40;99.90;;;;;;5041882;28;20068;-77
2022/01/05 05:49:05;;;;;;;9.07;1.98;;;4.40;99.90;;;;;;5042382;28;20037;-77
2022/01/05 05:51:31;;;;;;;9.88;2.83;;;4.50;99.90;;;;;;5049643;28;20478;-77
2022/01/05 05:53:56;;;;;;;11.43;2.40;;;4.50;99.90;;;;;;5054660;28;20037;-77
2022/01/05 05:56:22;;;;;;;13.63;2.95;;;4.60;99.90;;;;;;5039297;28;20140;-76
2022/01/05 05:58:47;;;;;;;11.60;2.42;;;4.60;99.90;;;;;;5052000;28;20052;-78
2022/01/05 06:01:13;;;;;;;11.18;2.00;;;4.60;99.90;;;;;;5047375;28;20053;-78
2022/01/05 06:03:38;;;;;;;12.43;2.28;;;4.70;99.90;;;;;;5038520;28;20435;-77
2022/01/05 06:06:04;;;;;;;12.18;2.20;;;4.80;99.90;;;;;;5044695;28;20053;-78
2022/01/05 06:08:29;;;;;;;13.20;2.50;;;4.80;99.90;;;;;;5039883;28;20079;-77
2022/01/05 06:10:55;;;;;;;16.48;2.80;;;4.80;99.90;;;;;;5054106;28;20132;-77
2022/01/05 06:13:21;;;;;;;13.90;2.60;;;4.70;99.90;;;;;;5023173;28;20037;-78
2022/01/05 06:15:46;;;;;;;14.68;2.97;;;4.80;99.90;;;;;;5044597;28;20780;-77
2022/01/05 06:18:12;;;;;;;9.40;1.88;;;4.80;99.90;;;;;;5058653;28;20067;-78
2022/01/05 06:20:37;;;;;;;7.70;1.52;;;4.90;99.90;;;;;;5053383;28;20055;-78
2022/01/05 06:23:03;;;;;;;10.55;1.85;;;4.90;99.90;;;;;;5042756;28;20136;-78
2022/01/05 06:25:29;;;;;;;9.68;1.90;;;4.90;99.90;;;;;;5053226;28;20449;-78
2022/01/05 06:27:54;;;;;;;10.27;2.40;;;4.90;99.90;;;;;;5042431;28;20029;-78
2022/01/05 06:30:20;;;;;;;10.27;1.63;;;4.80;99.90;;;;;;5055658;28;20040;-78
2022/01/05 06:32:46;;;;;;;7.93;1.85;;;4.80;99.90;;;;;;5038743;28;20040;-78
2022/01/05 06:35:13;;;;;;;13.45;1.80;;;4.70;99.90;;;;;;5026912;28;20434;-77
2022/01/05 06:37:39;;;;;;;8.13;1.40;;;4.70;99.90;;;;;;5036159;28;20119;-77
2022/01/05 06:40:06;;;;;;;10.85;1.83;;;4.80;99.90;;;;;;5034997;28;20132;-76
2022/01/05 06:42:31;;;;;;;12.23;1.40;;;5.00;99.90;;;;;;5033653;28;20685;-77
2022/01/05 06:44:57;;;;;;;8.23;1.55;;;5.00;99.90;;;;;;5032310;28;20108;-77
2022/01/05 06:47:22;;;;;;;10.98;1.70;;;4.90;99.90;;;;;;5036774;28;20159;-77
2022/01/05 06:49:48;;;;;;;11.10;1.80;;;5.00;99.90;;;;;;5049578;28;20049;-77
2022/01/05 06:52:13;;;;;;;7.97;1.92;;;4.90;99.90;;;;;;5040260;28;20044;-77
2022/01/05 06:54:40;;;;;;;9.88;2.28;;;4.80;99.90;;;;;;5038758;28;20037;-77
2022/01/05 06:57:06;;;;;;;8.65;1.80;;;4.70;99.90;;;;;;5038233;28;20041;-76
2022/01/05 06:59:32;;;;;;;8.48;2.28;;;4.70;99.90;;;;;;5046574;28;20033;-77
2022/01/05 07:01:57;;;;;;;10.55;2.42;;;4.70;99.90;;;;;;5024822;28;20028;-77
2022/01/05 07:04:23;;;;;;;10.95;2.17;;;4.70;99.90;;;;;;5040518;28;20376;-75
2022/01/05 07:06:49;;;;;;;9.00;1.98;;;4.80;99.90;;;;;;5023367;28;20383;-77
2022/01/05 07:09:14;;;;;;;11.32;1.98;;;4.80;99.90;;;;;;5035753;28;20336;-75
2022/01/05 07:11:40;;;;;;;6.07;1.80;;;4.90;99.90;;;;;;5045714;28;20036;-78
2022/01/05 07:14:06;;;;;;;5.47;1.27;;;4.90;99.90;;;;;;5060382;28;20051;-78
2022/01/05 07:16:31;;;;;;;7.40;1.60;;;4.90;99.90;;;;;;5037441;28;20025;-78
2022/01/05 07:18:57;;;;;;;8.07;1.13;;;5.00;99.90;;;;;;5025792;28;20074;-77
2022/01/05 07:21:22;;;;;;;5.88;1.33;;;5.00;99.90;;;;;;5035732;28;20065;-77
2022/01/05 07:23:48;;;;;;;8.27;1.40;;;5.10;99.90;;;;;;5051949;28;20404;-77
2022/01/05 07:26:14;;;;;;;6.30;1.33;;;5.10;99.90;;;;;;5053951;28;20162;-78
2022/01/05 07:28:39;;;;;;;6.32;1.08;;;5.00;99.90;;;;;;5036390;28;20139;-78
2022/01/05 07:31:05;;;;;;;5.57;1.00;;;5.10;99.90;;;;;;5037129;28;20052;-76
2022/01/05 07:33:31;;;;;;;10.05;1.60;;;5.00;99.90;;;;;;5020319;28;20055;-77
2022/01/05 07:35:56;;;;;;;12.98;2.08;;;5.00;99.90;;;;;;5038280;28;20049;-77
2022/01/05 07:38:22;;;;;;;5.38;1.20;;;5.00;99.90;;;;;;5035603;28;20047;-77
2022/01/05 07:40:48;;;;;;;7.28;1.33;;;5.00;99.90;;;;;;5034322;28;20160;-78
2022/01/05 07:43:13;;;;;;;4.88;1.30;;;4.90;99.90;;;;;;5001491;28;20037;-78
2022/01/05 07:45:39;;;;;;;4.65;1.00;;;5.00;99.90;;;;;;5032234;28;20040;-77
2022/01/05 07:48:05;;;;;;;5.80;1.38;;;5.00;99.90;;;;;;5046534;28;20039;-77
2022/01/05 07:50:32;;;;;;;10.60;1.42;;;5.00;99.90;;;;;;5053406;28;20083;-77
2022/01/05 07:53:01;;;;;;;9.25;2.65;;;4.90;99.90;;;;;;5051550;28;20055;-77
2022/01/05 07:55:27;;;;;;;4.90;2.10;;;5.00;99.90;;;;;;5052255;28;20052;-77
2022/01/05 07:57:53;;;;;;;5.70;1.92;;;5.00;99.90;;;;;;5042694;28;20025;-78
2022/01/05 08:00:19;;;;;;;5.45;2.40;;;5.10;99.90;;;;;;5033679;28;20624;-76
2022/01/05 08:02:44;;;;;;;7.90;1.70;;;5.20;99.90;;;;;;5053753;28;20558;-78
2022/01/05 08:05:10;;;;;;;9.38;2.00;;;5.00;99.90;;;;;;5037445;28;20124;-77
2022/01/05 08:07:36;;;;;;;6.88;1.95;;;5.00;99.90;;;;;;5039820;28;20041;-78
2022/01/05 08:10:01;;;;;;;7.47;1.73;;;5.10;99.90;;;;;;5042251;28;20402;-77
2022/01/05 08:12:27;;;;;;;7.65;1.67;;;5.20;99.90;;;;;;5039508;28;20038;-78
2022/01/05 08:14:53;;;;;;;6.15;1.00;;;5.20;99.90;;;;;;5047723;28;20043;-77
2022/01/05 08:17:19;;;;;;;7.18;1.25;;;5.40;99.90;;;;;;5038178;28;20394;-77
2022/01/05 08:19:45;;;;;;;6.05;1.17;;;5.50;99.90;;;;;;5055589;28;20047;-78
2022/01/05 08:22:10;;;;;;;8.30;1.73;;;5.60;99.90;;;;;;5030399;28;20040;-77
2022/01/05 08:24:36;;;;;;;9.18;1.25;;;5.60;99.90;;;;;;5049166;28;20123;-77
2022/01/05 08:27:02;;;;;;;7.30;1.50;;;5.60;99.90;;;;;;5037035;28;20067;-77
2022/01/05 08:29:27;;;;;;;8.70;1.35;;;5.40;99.90;;;;;;5039672;28;20040;-78
2022/01/05 08:31:53;;;;;;;5.32;0.98;;;5.40;99.90;;;;;;5040869;28;20056;-77
2022/01/05 08:34:19;;;;;;;9.15;1.80;;;5.50;99.90;;;;;;5031317;28;20662;-77
2022/01/05 08:36:44;;;;;;;7.72;1.30;;;5.50;99.90;;;;;;5043788;28;20041;-78
2022/01/05 08:39:10;;;;;;;7.10;1.63;;;5.50;99.90;;;;;;5035275;28;20044;-77
2022/01/05 08:41:36;;;;;;;7.35;1.58;;;5.60;99.90;;;;;;5024657;28;20036;-76
2022/01/05 08:44:01;;;;;;;9.80;1.42;;;5.50;99.90;;;;;;5033046;28;20036;-76
2022/01/05 08:46:27;;;;;;;8.75;1.65;;;5.50;99.90;;;;;;5036501;28;20037;-78
2022/01/05 08:48:53;;;;;;;9.05;2.22;;;5.40;99.90;;;;;;5037707;28;20033;-77
2022/01/05 08:51:18;;;;;;;6.75;1.27;;;5.40;99.90;;;;;;5017015;28;20032;-76
2022/01/05 08:53:44;;;;;;;10.48;1.33;;;5.40;99.90;;;;;;5045010;28;20052;-76
2022/01/05 08:56:09;;;;;;;7.30;1.45;;;5.50;99.90;;;;;;5042592;28;20127;-77
2022/01/05 08:58:35;;;;;;;10.60;1.42;;;5.50;99.90;;;;;;5020787;28;20048;-76
2022/01/05 09:01:01;;;;;;;10.82;1.60;;;5.60;99.90;;;;;;5032309;28;20096;-76
2022/01/05 09:03:26;;;;;;;7.50;1.58;;;5.60;99.90;;;;;;5019710;28;20091;-76
2022/01/05 09:05:52;;;;;;;6.95;1.50;;;5.60;99.90;;;;;;5034231;28;20099;-76
2022/01/05 09:08:17;;;;;;;8.52;1.98;;;5.70;99.90;;;;;;5037563;28;20047;-77
2022/01/05 09:10:43;;;;;;;11.57;2.10;;;5.80;99.90;;;;;;5045657;28;20045;-77
2022/01/05 09:13:09;;;;;;;13.10;1.88;;;5.90;99.90;;;;;;5035141;28;20045;-76
2022/01/05 09:15:35;;;;;;;9.13;1.30;;;6.00;99.90;;;;;;5052910;28;20041;-76
2022/01/05 09:18:01;;;;;;;14.35;1.67;;;6.10;99.90;;;;;;5036641;28;20099;-77
2022/01/05 09:20:27;;;;;;;8.48;1.85;;;5.90;99.90;;;;;;5036209;28;20608;-76
2022/01/05 09:22:52;;;;;;;9.68;1.80;;;5.90;99.90;;;;;;5033870;28;20128;-77
2022/01/05 09:25:18;;;;;;;7.03;1.17;;;5.90;99.90;;;;;;5056788;28;20032;-75
2022/01/05 09:27:46;;;;;;;10.50;1.23;;;5.80;99.90;;;;;;5056621;28;20668;-76
2022/01/05 09:30:13;;;;;;;6.93;1.30;;;5.70;99.90;;;;;;5051226;28;20057;-76
2022/01/05 09:32:40;;;;;;;9.13;1.40;;;5.70;99.90;;;;;;5056262;28;20036;-77
2022/01/05 09:35:08;;;;;;;9.45;1.85;;;5.60;99.90;;;;;;5049209;28;20052;-76
2022/01/05 09:37:39;;;;;;;5.30;1.17;;;5.60;99.90;;;;;;5036922;28;20055;-76
2022/01/05 09:42:50;;;;;;;7.40;1.88;;;5.60;99.90;;;;;;5018778;28;20045;-78
2022/01/05 09:45:15;;;;;;;11.15;1.70;;;5.60;99.90;;;;;;5033746;28;20036;-77
2022/01/05 09:47:46;;;;;;;9.40;2.05;;;5.60;99.90;;;;;;5020876;28;20068;-77
2022/01/05 09:50:13;;;;;;;13.20;2.05;;;5.60;99.90;;;;;;5036341;28;20505;-78
2022/01/05 09:52:43;;;;;;;12.52;1.85;;;5.60;99.90;;;;;;5035152;28;20033;-77
2022/01/05 09:55:10;;;;;;;11.05;2.10;;;5.70;99.90;;;;;;5027923;28;20044;-77
2022/01/05 09:57:39;;;;;;;9.45;1.95;;;5.80;99.90;;;;;;5036482;28;20071;-78
2022/01/05 10:00:06;;;;;;;12.00;2.10;;;5.80;99.90;;;;;;5020970;28;20132;-77
2022/01/05 10:02:32;;;;;;;7.80;1.20;;;5.80;99.90;;;;;;5030096;28;20043;-78
2022/01/05 10:04:58;;;;;;;15.40;2.22;;;5.90;99.90;;;;;;5035672;28;20041;-77
2022/01/05 10:07:24;;;;;;;15.75;2.67;;;6.00;99.90;;;;;;5036590;28;20068;-77
2022/01/05 10:09:50;;;;;;;14.82;2.33;;;6.00;99.90;;;;;;5035165;28;20739;-78
2022/01/05 10:12:16;;;;;;;9.48;1.90;;;6.10;99.90;;;;;;5036533;28;20048;-77
2022/01/05 10:14:45;;;;;;;13.20;1.92;;;6.10;99.90;;;;;;5036953;28;20037;-77
2022/01/05 10:17:16;;;;;;;13.45;2.10;;;6.10;99.90;;;;;;5035717;28;20045;-77
2022/01/05 10:19:42;;;;;;;14.27;2.47;;;6.10;99.90;;;;;;5035916;28;20491;-78
2022/01/05 10:22:46;;;;;;;17.58;2.60;;;6.10;99.90;;;;;;5041233;28;20059;-78
2022/01/05 10:25:16;;;;;;;15.32;2.42;;;6.10;99.90;;;;;;4943665;28;20051;-77
2022/01/05 10:27:44;;;;;;;12.98;2.38;;;6.10;99.90;;;;;;4956199;28;20074;-78
2022/01/05 10:30:14;;;;;;;19.95;2.72;;;6.30;99.90;;;;;;5012103;28;20052;-77
2022/01/05 10:32:44;;;;;;;15.93;2.05;;;6.20;99.90;;;;;;5044605;28;20128;-78
2022/01/05 10:35:16;;;;;;;14.90;2.75;;;6.30;99.90;;;;;;5035723;28;20418;-77
2022/01/05 10:37:44;;;;;;;11.32;2.25;;;6.50;99.90;;;;;;5043521;28;20029;-77
2022/01/05 10:40:20;;;;;;;18.85;2.92;;;6.50;99.90;;;;;;5021472;28;20037;-77
2022/01/05 10:42:47;;;;;;;13.18;2.50;;;6.50;99.90;;;;;;5044245;28;20387;-79
2022/01/05 10:45:19;;;;;;;15.35;2.70;;;6.50;99.90;;;;;;5038368;28;20044;-76
2022/01/05 10:48:04;;;;;;;12.02;2.47;;;6.60;99.90;;;;;;5039879;28;20044;-78
2022/01/05 10:50:29;;;;;;;16.27;2.35;;;6.70;99.90;;;;;;5019750;28;20041;-78
2022/01/05 10:52:57;;;;;;;13.75;2.83;;;6.70;99.90;;;;;;5037724;28;20043;-79
2022/01/05 10:55:25;;;;;;;11.60;3.15;;;6.70;99.90;;;;;;5019666;28;20037;-79
2022/01/05 10:58:03;;;;;;;13.85;3.05;;;6.70;99.90;;;;;;5021867;28;20105;-78
2022/01/05 11:00:42;;;;;;;19.15;2.92;;;6.90;99.90;;;;;;5037956;28;20048;-77
2022/01/05 11:03:35;;;;;;;10.00;1.80;;;7.00;99.90;;;;;;5022463;28;20423;-79
2022/01/05 11:06:08;;;;;;;11.80;2.88;;;7.10;99.90;;;;;;5034807;28;20118;-78
2022/01/05 11:08:55;;;;;;;11.70;1.83;;;7.20;99.90;;;;;;5047833;28;20048;-78
2022/01/05 11:11:31;;;;;;;16.90;2.70;;;7.30;99.90;;;;;;5039925;28;20127;-79
2022/01/05 11:13:57;;;;;;;13.77;2.65;;;7.20;99.90;;;;;;5042500;28;20541;-78
2022/01/05 11:16:30;;;;;;;14.52;2.47;;;7.30;99.90;;;;;;5020533;28;20041;-77
2022/01/05 11:19:12;;;;;;;18.45;3.45;;;7.40;99.90;;;;;;5013683;28;20056;-79
2022/01/05 11:21:39;;;;;;;14.40;2.65;;;7.60;99.90;;;;;;5041332;28;20687;-78
2022/01/05 11:24:06;;;;;;;14.57;2.50;;;7.60;99.90;;;;;;5031045;28;20621;-77
2022/01/05 11:26:35;;;;;;;12.73;2.63;;;7.60;99.90;;;;;;5043661;28;20094;-77
2022/01/05 11:29:03;;;;;;;16.38;3.05;;;7.70;99.90;;;;;;5026857;28;20370;-79
2022/01/05 11:31:31;;;;;;;17.63;3.03;;;7.70;99.90;;;;;;5020663;28;20053;-77
2022/01/05 11:33:58;;;;;;;10.80;2.22;;;7.80;99.90;;;;;;5044818;28;20077;-77
2022/01/05 11:36:24;;;;;;;16.58;2.50;;;7.90;99.90;;;;;;5018306;28;20041;-79
2022/01/05 11:38:50;;;;;;;18.90;3.03;;;7.80;99.90;;;;;;5020968;28;20449;-78
2022/01/05 11:41:17;;;;;;;9.77;2.30;;;7.80;99.90;;;;;;5018841;28;20115;-77
2022/01/05 11:43:44;;;;;;;15.00;2.08;;;7.80;99.90;;;;;;5039672;28;20045;-78
2022/01/05 11:46:15;;;;;;;17.50;2.65;;;7.80;99.90;;;;;;5040223;28;20565;-77
2022/01/05 11:48:56;;;;;;;16.42;2.92;;;7.80;99.90;;;;;;5017356;28;20111;-76
2022/01/05 11:51:46;;;;;;;8.82;2.38;;;7.90;99.90;;;;;;5032616;28;20037;-77
2022/01/05 11:54:12;;;;;;;18.38;2.88;;;7.90;99.90;;;;;;5023107;28;20045;-77
2022/01/05 11:56:51;;;;;;;13.07;2.75;;;7.90;99.90;;;;;;5040529;28;20036;-77
2022/01/05 11:59:36;;;;;;;16.73;2.90;;;7.90;99.90;;;;;;5039158;28;20395;-77
2022/01/05 12:02:13;;;;;;;13.02;2.60;;;8.00;99.90;;;;;;5025554;28;20033;-77
2022/01/05 12:05:01;;;;;;;20.77;3.47;;;8.00;99.90;;;;;;5035720;28;20040;-77
2022/01/05 12:07:45;;;;;;;15.60;2.75;;;8.10;99.90;;;;;;5029168;28;20052;-78
2022/01/05 12:10:23;;;;;;;12.55;2.47;;;8.10;99.90;;;;;;5020175;28;20051;-77
2022/01/05 12:12:54;;;;;;;12.85;2.17;;;8.20;99.90;;;;;;5027136;28;20049;-76
2022/01/05 12:15:38;;;;;;;12.93;2.13;;;8.30;99.90;;;;;;5038727;28;20063;-77
2022/01/05 12:18:05;;;;;;;11.43;2.50;;;8.20;99.90;;;;;;5037123;28;20502;-76
2022/01/05 12:20:40;;;;;;;9.75;2.75;;;8.10;99.90;;;;;;5034785;28;20036;-77
2022/01/05 12:23:24;;;;;;;8.63;1.85;;;8.10;99.90;;;;;;5047308;28;20044;-78
2022/01/05 12:26:02;;;;;;;11.65;2.38;;;8.10;99.90;;;;;;5036627;28;20041;-77
2022/01/05 12:28:36;;;;;;;16.83;4.40;;;8.00;99.90;;;;;;5042694;28;20111;-79
2022/01/05 12:31:06;;;;;;;10.70;2.30;;;8.00;99.90;;;;;;5026670;28;20052;-79
2022/01/05 12:33:44;;;;;;;13.45;3.10;;;8.00;99.90;;;;;;5039273;28;20084;-78
2022/01/05 12:36:10;;;;;;;18.02;2.28;;;7.90;99.90;;;;;;5033871;28;20040;-79
2022/01/05 12:38:54;;;;;;;17.42;2.20;;;8.00;99.90;;;;;;5031827;28;20134;-78
2022/01/05 12:41:35;;;;;;;7.80;1.88;;;8.20;99.90;;;;;;5035539;28;20040;-78
2022/01/05 12:44:32;;;;;;;14.32;2.72;;;8.20;99.90;;;;;;5028076;28;20555;-77
2022/01/05 12:46:57;;;;;;;16.55;3.08;;;8.20;99.90;;;;;;5034195;28;20044;-78
2022/01/05 12:49:32;;;;;;;13.98;2.70;;;8.20;99.90;;;;;;5036836;28;20033;-79
2022/01/05 12:52:12;;;;;;;14.77;2.67;;;8.10;99.90;;;;;;5008915;28;20044;-78
2022/01/05 12:54:52;;;;;;;15.57;3.42;;;8.00;99.90;;;;;;5028284;28;20051;-78